sensor_id;sensor_type;location;lat;lon;timestamp;temperature;humidity
17659;DHT22;8948;51.534;8.262;2023-03-01T00:01:19;1.70;55.20
17659;DHT22;8948;51.534;8.262;2023-03-01T00:06:20;1.70;54.90
17659;DHT22;8948;51.534;8.262;2023-03-01T00:11:27;1.60;54.70
17659;DHT22;8948;51.534;8.262;2023-03-01T00:16:36;1.40;55.10
17659;DHT22;8948;51.534;8.262;2023-03-01T00:21:39;1.40;55.20
17659;DHT22;8948;51.534;8.262;2023-03-01T00:26:40;1.30;55.50
17659;DHT22;8948;51.534;8.262;2023-03-01T00:31:40;1.20;55.50
17659;DHT22;8948;51.534;8.262;2023-03-01T00:36:41;1.20;55.40
17659;DHT22;8948;51.534;8.262;2023-03-01T00:41:42;1.10;55.60
17659;DHT22;8948;51.534;8.262;2023-03-01T00:46:42;1.10;55.70
17659;DHT22;8948;51.534;8.262;2023-03-01T00:51:43;1.00;55.80
17659;DHT22;8948;51.534;8.262;2023-03-01T00:56:43;0.90;56.20
17659;DHT22;8948;51.534;8.262;2023-03-01T01:01:44;0.80;55.80
17659;DHT22;8948;51.534;8.262;2023-03-01T01:06:46;0.70;56.30
17659;DHT22;8948;51.534;8.262;2023-03-01T01:11:49;0.70;56.40
17659;DHT22;8948;51.534;8.262;2023-03-01T01:22:00;0.60;56.80
17659;DHT22;8948;51.534;8.262;2023-03-01T01:27:01;0.50;57.10
17659;DHT22;8948;51.534;8.262;2023-03-01T01:32:02;0.40;57.10
17659;DHT22;8948;51.534;8.262;2023-03-01T01:37:02;0.40;57.20
17659;DHT22;8948;51.534;8.262;2023-03-01T01:42:03;0.30;56.80
17659;DHT22;8948;51.534;8.262;2023-03-01T01:47:06;0.30;56.90
17659;DHT22;8948;51.534;8.262;2023-03-01T01:52:17;0.30;56.50
17659;DHT22;8948;51.534;8.262;2023-03-01T01:57:24;0.30;56.70
17659;DHT22;8948;51.534;8.262;2023-03-01T02:02:26;0.20;56.90
17659;DHT22;8948;51.534;8.262;2023-03-01T02:07:27;0.10;56.50
17659;DHT22;8948;51.534;8.262;2023-03-01T02:12:28;0.00;56.60
17659;DHT22;8948;51.534;8.262;2023-03-01T02:17:29;0.00;57.10
17659;DHT22;8948;51.534;8.262;2023-03-01T02:22:31;-0.10;57.40
17659;DHT22;8948;51.534;8.262;2023-03-01T02:27:38;-0.10;57.60
17659;DHT22;8948;51.534;8.262;2023-03-01T02:32:41;-0.20;57.40
17659;DHT22;8948;51.534;8.262;2023-03-01T02:37:43;-0.30;57.20
17659;DHT22;8948;51.534;8.262;2023-03-01T02:42:56;-0.30;57.30
17659;DHT22;8948;51.534;8.262;2023-03-01T02:47:57;-0.40;57.10
17659;DHT22;8948;51.534;8.262;2023-03-01T02:53:13;-0.40;57.70
17659;DHT22;8948;51.534;8.262;2023-03-01T02:58:17;-0.50;58.50
17659;DHT22;8948;51.534;8.262;2023-03-01T03:03:20;-0.50;57.50
17659;DHT22;8948;51.534;8.262;2023-03-01T03:08:21;-0.50;57.70
17659;DHT22;8948;51.534;8.262;2023-03-01T03:13:24;-0.50;57.70
17659;DHT22;8948;51.534;8.262;2023-03-01T03:18:28;-0.50;57.70
17659;DHT22;8948;51.534;8.262;2023-03-01T03:23:29;-0.50;58.30
17659;DHT22;8948;51.534;8.262;2023-03-01T03:28:34;-0.60;58.60
17659;DHT22;8948;51.534;8.262;2023-03-01T03:33:35;-0.70;58.50
17659;DHT22;8948;51.534;8.262;2023-03-01T03:38:36;-0.70;58.10
17659;DHT22;8948;51.534;8.262;2023-03-01T03:43:39;-0.60;58.30
17659;DHT22;8948;51.534;8.262;2023-03-01T03:48:42;-0.70;58.10
17659;DHT22;8948;51.534;8.262;2023-03-01T03:53:45;-0.80;58.20
17659;DHT22;8948;51.534;8.262;2023-03-01T03:58:46;-0.80;58.00
17659;DHT22;8948;51.534;8.262;2023-03-01T04:03:46;-0.80;58.60
17659;DHT22;8948;51.534;8.262;2023-03-01T04:08:47;-0.90;59.10
17659;DHT22;8948;51.534;8.262;2023-03-01T04:13:52;-1.00;58.50
17659;DHT22;8948;51.534;8.262;2023-03-01T04:18:53;-1.00;58.70
17659;DHT22;8948;51.534;8.262;2023-03-01T04:23:54;-1.00;59.20
17659;DHT22;8948;51.534;8.262;2023-03-01T04:28:54;-1.10;59.10
17659;DHT22;8948;51.534;8.262;2023-03-01T04:33:55;-1.10;58.60
17659;DHT22;8948;51.534;8.262;2023-03-01T04:38:56;-1.20;58.80
17659;DHT22;8948;51.534;8.262;2023-03-01T04:43:56;-1.20;58.70
17659;DHT22;8948;51.534;8.262;2023-03-01T04:49:00;-1.20;58.80
17659;DHT22;8948;51.534;8.262;2023-03-01T04:54:00;-1.30;58.50
17659;DHT22;8948;51.534;8.262;2023-03-01T04:59:01;-1.30;59.30
17659;DHT22;8948;51.534;8.262;2023-03-01T05:04:05;-1.20;59.40
17659;DHT22;8948;51.534;8.262;2023-03-01T05:09:07;-1.30;59.30
17659;DHT22;8948;51.534;8.262;2023-03-01T05:14:09;-1.40;59.30
17659;DHT22;8948;51.534;8.262;2023-03-01T05:19:09;-1.40;59.60
17659;DHT22;8948;51.534;8.262;2023-03-01T05:24:15;-1.50;60.10
17659;DHT22;8948;51.534;8.262;2023-03-01T05:29:15;-1.50;59.80
17659;DHT22;8948;51.534;8.262;2023-03-01T05:34:17;-1.50;60.00
17659;DHT22;8948;51.534;8.262;2023-03-01T05:39:17;-1.50;60.00
17659;DHT22;8948;51.534;8.262;2023-03-01T05:44:18;-1.60;59.60
17659;DHT22;8948;51.534;8.262;2023-03-01T05:49:19;-1.60;59.80
17659;DHT22;8948;51.534;8.262;2023-03-01T05:54:20;-1.60;59.90
17659;DHT22;8948;51.534;8.262;2023-03-01T05:59:22;-1.70;60.40
17659;DHT22;8948;51.534;8.262;2023-03-01T06:04:22;-1.70;60.30
17659;DHT22;8948;51.534;8.262;2023-03-01T06:09:23;-1.60;60.00
17659;DHT22;8948;51.534;8.262;2023-03-01T06:14:24;-1.70;60.20
17659;DHT22;8948;51.534;8.262;2023-03-01T06:19:24;-1.70;60.60
17659;DHT22;8948;51.534;8.262;2023-03-01T06:24:25;-1.70;60.60
17659;DHT22;8948;51.534;8.262;2023-03-01T06:29:25;-1.70;61.00
17659;DHT22;8948;51.534;8.262;2023-03-01T06:34:26;-1.70;60.90
17659;DHT22;8948;51.534;8.262;2023-03-01T06:39:27;-1.70;61.30
17659;DHT22;8948;51.534;8.262;2023-03-01T06:44:28;-1.70;61.30
17659;DHT22;8948;51.534;8.262;2023-03-01T06:49:29;-1.70;61.50
17659;DHT22;8948;51.534;8.262;2023-03-01T06:54:30;-1.60;61.50
17659;DHT22;8948;51.534;8.262;2023-03-01T06:59:31;-1.60;64.20
17659;DHT22;8948;51.534;8.262;2023-03-01T07:04:31;-0.80;73.70
17659;DHT22;8948;51.534;8.262;2023-03-01T07:09:32;-0.90;64.30
17659;DHT22;8948;51.534;8.262;2023-03-01T07:14:33;-1.00;62.70
17659;DHT22;8948;51.534;8.262;2023-03-01T07:19:34;-1.00;62.60
17659;DHT22;8948;51.534;8.262;2023-03-01T07:24:34;-0.40;82.30
17659;DHT22;8948;51.534;8.262;2023-03-01T07:29:35;0.70;78.80
17659;DHT22;8948;51.534;8.262;2023-03-01T07:34:36;0.80;63.40
17659;DHT22;8948;51.534;8.262;2023-03-01T07:39:37;0.60;61.90
17659;DHT22;8948;51.534;8.262;2023-03-01T07:44:37;0.50;61.60
17659;DHT22;8948;51.534;8.262;2023-03-01T07:49:38;0.40;61.80
17659;DHT22;8948;51.534;8.262;2023-03-01T07:54:39;0.50;62.30
17659;DHT22;8948;51.534;8.262;2023-03-01T07:59:39;0.60;61.70
17659;DHT22;8948;51.534;8.262;2023-03-01T08:04:40;0.80;61.50
17659;DHT22;8948;51.534;8.262;2023-03-01T08:09:41;1.10;61.10
17659;DHT22;8948;51.534;8.262;2023-03-01T08:14:41;1.40;61.80
17659;DHT22;8948;51.534;8.262;2023-03-01T08:19:42;1.60;60.20
17659;DHT22;8948;51.534;8.262;2023-03-01T08:24:43;1.90;58.80
17659;DHT22;8948;51.534;8.262;2023-03-01T08:29:44;2.10;59.50
17659;DHT22;8948;51.534;8.262;2023-03-01T08:34:47;2.30;57.60
17659;DHT22;8948;51.534;8.262;2023-03-01T08:39:47;2.50;56.00
17659;DHT22;8948;51.534;8.262;2023-03-01T08:44:48;2.60;57.50
17659;DHT22;8948;51.534;8.262;2023-03-01T08:49:50;2.70;56.10
17659;DHT22;8948;51.534;8.262;2023-03-01T08:54:51;2.90;56.60
17659;DHT22;8948;51.534;8.262;2023-03-01T08:59:51;3.30;56.70
17659;DHT22;8948;51.534;8.262;2023-03-01T09:04:52;3.50;55.70
17659;DHT22;8948;51.534;8.262;2023-03-01T09:09:52;3.70;54.60
17659;DHT22;8948;51.534;8.262;2023-03-01T09:14:54;3.90;54.20
17659;DHT22;8948;51.534;8.262;2023-03-01T09:19:54;4.10;54.60
17659;DHT22;8948;51.534;8.262;2023-03-01T09:24:55;4.20;53.00
17659;DHT22;8948;51.534;8.262;2023-03-01T09:29:56;4.30;52.10
17659;DHT22;8948;51.534;8.262;2023-03-01T09:34:57;4.60;53.00
17659;DHT22;8948;51.534;8.262;2023-03-01T09:40:08;4.80;52.90
17659;DHT22;8948;51.534;8.262;2023-03-01T09:45:26;4.90;51.90
17659;DHT22;8948;51.534;8.262;2023-03-01T09:50:33;5.10;51.40
17659;DHT22;8948;51.534;8.262;2023-03-01T10:01:02;5.70;51.80
17659;DHT22;8948;51.534;8.262;2023-03-01T10:11:30;5.80;49.10
17659;DHT22;8948;51.534;8.262;2023-03-01T10:16:48;6.00;48.80
17659;DHT22;8948;51.534;8.262;2023-03-01T10:21:51;6.10;49.00
17659;DHT22;8948;51.534;8.262;2023-03-01T10:26:57;6.10;49.00
17659;DHT22;8948;51.534;8.262;2023-03-01T10:31:59;6.40;48.00
17659;DHT22;8948;51.534;8.262;2023-03-01T10:37:12;6.70;48.80
17659;DHT22;8948;51.534;8.262;2023-03-01T10:42:29;7.00;46.10
17659;DHT22;8948;51.534;8.262;2023-03-01T10:47:30;7.20;46.40
17659;DHT22;8948;51.534;8.262;2023-03-01T10:52:34;7.40;47.60
17659;DHT22;8948;51.534;8.262;2023-03-01T10:57:39;7.80;47.00
17659;DHT22;8948;51.534;8.262;2023-03-01T11:02:41;8.00;48.30
17659;DHT22;8948;51.534;8.262;2023-03-01T11:07:52;8.00;45.70
17659;DHT22;8948;51.534;8.262;2023-03-01T11:13:05;8.20;46.00
17659;DHT22;8948;51.534;8.262;2023-03-01T11:18:21;8.40;44.90
17659;DHT22;8948;51.534;8.262;2023-03-01T11:23:22;8.50;44.00
17659;DHT22;8948;51.534;8.262;2023-03-01T11:28:24;8.70;44.90
17659;DHT22;8948;51.534;8.262;2023-03-01T11:33:40;8.70;43.70
17659;DHT22;8948;51.534;8.262;2023-03-01T11:38:42;8.90;43.20
17659;DHT22;8948;51.534;8.262;2023-03-01T11:43:59;9.20;42.30
17659;DHT22;8948;51.534;8.262;2023-03-01T11:49:36;9.50;42.00
17659;DHT22;8948;51.534;8.262;2023-03-01T11:55:16;9.50;43.30
17659;DHT22;8948;51.534;8.262;2023-03-01T12:05:48;9.50;42.40
17659;DHT22;8948;51.534;8.262;2023-03-01T12:26:35;10.20;39.80
17659;DHT22;8948;51.534;8.262;2023-03-01T12:42:44;10.40;40.80
17659;DHT22;8948;51.534;8.262;2023-03-01T12:53:26;10.30;40.00
17659;DHT22;8948;51.534;8.262;2023-03-01T13:03:52;10.60;40.40
17659;DHT22;8948;51.534;8.262;2023-03-01T13:09:27;10.70;39.90
17659;DHT22;8948;51.534;8.262;2023-03-01T13:14:36;11.30;40.70
17659;DHT22;8948;51.534;8.262;2023-03-01T13:19:37;11.30;37.10
17659;DHT22;8948;51.534;8.262;2023-03-01T13:24:41;11.30;38.10
17659;DHT22;8948;51.534;8.262;2023-03-01T13:29:50;11.40;39.40
17659;DHT22;8948;51.534;8.262;2023-03-01T13:34:53;11.60;37.30
17659;DHT22;8948;51.534;8.262;2023-03-01T13:39:54;11.80;37.60
17659;DHT22;8948;51.534;8.262;2023-03-01T13:44:54;11.90;39.40
17659;DHT22;8948;51.534;8.262;2023-03-01T13:50:00;11.90;38.40
17659;DHT22;8948;51.534;8.262;2023-03-01T13:55:03;11.90;38.70
17659;DHT22;8948;51.534;8.262;2023-03-01T14:00:07;12.20;37.70
17659;DHT22;8948;51.534;8.262;2023-03-01T14:05:09;12.50;36.80
17659;DHT22;8948;51.534;8.262;2023-03-01T14:10:12;12.50;36.60
17659;DHT22;8948;51.534;8.262;2023-03-01T14:15:34;12.50;36.50
17659;DHT22;8948;51.534;8.262;2023-03-01T14:20:43;12.40;36.40
17659;DHT22;8948;51.534;8.262;2023-03-01T14:25:54;12.40;36.30
17659;DHT22;8948;51.534;8.262;2023-03-01T14:30:57;12.50;36.20
17659;DHT22;8948;51.534;8.262;2023-03-01T14:41:07;12.50;36.20
17659;DHT22;8948;51.534;8.262;2023-03-01T14:46:25;12.60;36.30
17659;DHT22;8948;51.534;8.262;2023-03-01T14:51:26;12.70;35.80
17659;DHT22;8948;51.534;8.262;2023-03-01T14:56:27;12.90;36.30
17659;DHT22;8948;51.534;8.262;2023-03-01T15:01:43;12.80;34.90
17659;DHT22;8948;51.534;8.262;2023-03-01T15:06:44;12.50;35.40
17659;DHT22;8948;51.534;8.262;2023-03-01T15:11:44;12.60;36.40
17659;DHT22;8948;51.534;8.262;2023-03-01T15:16:45;12.70;35.90
17659;DHT22;8948;51.534;8.262;2023-03-01T15:21:49;12.70;36.50
17659;DHT22;8948;51.534;8.262;2023-03-01T15:26:58;12.50;35.60
17659;DHT22;8948;51.534;8.262;2023-03-01T15:32:22;12.10;36.10
17659;DHT22;8948;51.534;8.262;2023-03-01T15:37:46;11.70;36.40
17659;DHT22;8948;51.534;8.262;2023-03-01T15:42:50;11.50;36.40
17659;DHT22;8948;51.534;8.262;2023-03-01T15:47:58;11.40;37.00
17659;DHT22;8948;51.534;8.262;2023-03-01T15:53:06;11.40;36.20
17659;DHT22;8948;51.534;8.262;2023-03-01T15:58:13;11.00;36.70
17659;DHT22;8948;51.534;8.262;2023-03-01T16:03:14;10.80;36.60
17659;DHT22;8948;51.534;8.262;2023-03-01T16:08:17;10.70;37.00
17659;DHT22;8948;51.534;8.262;2023-03-01T16:13:18;10.80;37.00
17659;DHT22;8948;51.534;8.262;2023-03-01T16:18:19;10.60;36.70
17659;DHT22;8948;51.534;8.262;2023-03-01T16:23:20;10.50;37.00
17659;DHT22;8948;51.534;8.262;2023-03-01T16:28:21;10.30;37.80
17659;DHT22;8948;51.534;8.262;2023-03-01T16:33:22;10.00;38.40
17659;DHT22;8948;51.534;8.262;2023-03-01T16:38:22;9.70;38.80
17659;DHT22;8948;51.534;8.262;2023-03-01T16:43:23;9.60;39.30
17659;DHT22;8948;51.534;8.262;2023-03-01T16:48:23;9.50;39.60
17659;DHT22;8948;51.534;8.262;2023-03-01T16:53:24;9.50;39.90
17659;DHT22;8948;51.534;8.262;2023-03-01T16:58:25;9.20;40.50
17659;DHT22;8948;51.534;8.262;2023-03-01T17:03:26;8.90;40.90
17659;DHT22;8948;51.534;8.262;2023-03-01T17:08:26;8.80;41.20
17659;DHT22;8948;51.534;8.262;2023-03-01T17:13:27;8.40;41.70
17659;DHT22;8948;51.534;8.262;2023-03-01T17:18:27;8.40;42.00
17659;DHT22;8948;51.534;8.262;2023-03-01T17:23:30;8.20;41.70
17659;DHT22;8948;51.534;8.262;2023-03-01T17:28:32;8.20;41.60
17659;DHT22;8948;51.534;8.262;2023-03-01T17:33:33;8.20;42.00
17659;DHT22;8948;51.534;8.262;2023-03-01T17:38:33;8.10;42.20
17659;DHT22;8948;51.534;8.262;2023-03-01T17:43:37;8.00;42.30
17659;DHT22;8948;51.534;8.262;2023-03-01T17:48:38;8.00;42.80
17659;DHT22;8948;51.534;8.262;2023-03-01T17:53:38;7.90;42.90
17659;DHT22;8948;51.534;8.262;2023-03-01T17:58:39;7.80;43.20
17659;DHT22;8948;51.534;8.262;2023-03-01T18:03:40;7.80;43.10
17659;DHT22;8948;51.534;8.262;2023-03-01T18:08:41;7.70;43.20
17659;DHT22;8948;51.534;8.262;2023-03-01T18:13:42;7.50;43.60
17659;DHT22;8948;51.534;8.262;2023-03-01T18:18:43;7.40;43.90
17659;DHT22;8948;51.534;8.262;2023-03-01T18:23:46;7.40;44.00
17659;DHT22;8948;51.534;8.262;2023-03-01T18:28:48;7.30;44.10
17659;DHT22;8948;51.534;8.262;2023-03-01T18:33:52;7.10;44.40
17659;DHT22;8948;51.534;8.262;2023-03-01T18:38:54;6.90;45.00
17659;DHT22;8948;51.534;8.262;2023-03-01T18:43:55;6.90;44.90
17659;DHT22;8948;51.534;8.262;2023-03-01T18:48:56;6.90;45.10
17659;DHT22;8948;51.534;8.262;2023-03-01T18:53:57;6.80;45.20
17659;DHT22;8948;51.534;8.262;2023-03-01T18:58:59;6.70;45.00
17659;DHT22;8948;51.534;8.262;2023-03-01T19:03:59;6.60;45.40
17659;DHT22;8948;51.534;8.262;2023-03-01T19:09:00;6.40;45.70
17659;DHT22;8948;51.534;8.262;2023-03-01T19:14:01;6.30;46.10
17659;DHT22;8948;51.534;8.262;2023-03-01T19:19:04;6.30;46.00
17659;DHT22;8948;51.534;8.262;2023-03-01T19:24:05;6.30;46.20
17659;DHT22;8948;51.534;8.262;2023-03-01T19:29:07;6.20;46.40
17659;DHT22;8948;51.534;8.262;2023-03-01T19:34:09;6.10;46.50
17659;DHT22;8948;51.534;8.262;2023-03-01T19:39:11;6.00;46.70
17659;DHT22;8948;51.534;8.262;2023-03-01T19:44:12;5.90;46.70
17659;DHT22;8948;51.534;8.262;2023-03-01T19:49:13;5.90;46.90
17659;DHT22;8948;51.534;8.262;2023-03-01T19:54:14;5.70;46.80
17659;DHT22;8948;51.534;8.262;2023-03-01T19:59:19;5.60;47.30
17659;DHT22;8948;51.534;8.262;2023-03-01T20:04:23;5.70;47.10
17659;DHT22;8948;51.534;8.262;2023-03-01T20:09:24;5.50;47.10
17659;DHT22;8948;51.534;8.262;2023-03-01T20:14:24;5.30;48.10
17659;DHT22;8948;51.534;8.262;2023-03-01T20:19:25;5.20;48.00
17659;DHT22;8948;51.534;8.262;2023-03-01T20:24:25;4.80;48.70
17659;DHT22;8948;51.534;8.262;2023-03-01T20:29:26;5.00;48.70
17659;DHT22;8948;51.534;8.262;2023-03-01T20:34:26;5.00;48.70
17659;DHT22;8948;51.534;8.262;2023-03-01T20:39:27;5.00;48.90
17659;DHT22;8948;51.534;8.262;2023-03-01T20:44:28;4.90;49.10
17659;DHT22;8948;51.534;8.262;2023-03-01T20:49:28;4.80;49.40
17659;DHT22;8948;51.534;8.262;2023-03-01T20:54:29;4.70;49.30
17659;DHT22;8948;51.534;8.262;2023-03-01T20:59:29;4.70;49.30
17659;DHT22;8948;51.534;8.262;2023-03-01T21:04:30;4.70;49.40
17659;DHT22;8948;51.534;8.262;2023-03-01T21:09:30;4.70;49.10
17659;DHT22;8948;51.534;8.262;2023-03-01T21:14:31;4.40;49.70
17659;DHT22;8948;51.534;8.262;2023-03-01T21:19:42;4.20;50.20
17659;DHT22;8948;51.534;8.262;2023-03-01T21:24:43;4.20;50.60
17659;DHT22;8948;51.534;8.262;2023-03-01T21:29:45;4.30;50.30
17659;DHT22;8948;51.534;8.262;2023-03-01T21:34:46;4.30;50.30
17659;DHT22;8948;51.534;8.262;2023-03-01T21:39:46;4.20;50.50
17659;DHT22;8948;51.534;8.262;2023-03-01T21:44:47;4.00;51.20
17659;DHT22;8948;51.534;8.262;2023-03-01T21:49:47;3.80;51.50
17659;DHT22;8948;51.534;8.262;2023-03-01T21:54:50;3.60;52.20
17659;DHT22;8948;51.534;8.262;2023-03-01T21:59:51;3.40;52.40
17659;DHT22;8948;51.534;8.262;2023-03-01T22:04:52;3.20;52.70
17659;DHT22;8948;51.534;8.262;2023-03-01T22:09:56;3.40;52.80
17659;DHT22;8948;51.534;8.262;2023-03-01T22:14:57;3.40;52.70
17659;DHT22;8948;51.534;8.262;2023-03-01T22:19:57;3.40;52.50
17659;DHT22;8948;51.534;8.262;2023-03-01T22:24:58;3.30;52.80
17659;DHT22;8948;51.534;8.262;2023-03-01T22:29:58;3.30;53.00
17659;DHT22;8948;51.534;8.262;2023-03-01T22:34:59;3.30;52.50
17659;DHT22;8948;51.534;8.262;2023-03-01T22:40:00;3.50;52.20
17659;DHT22;8948;51.534;8.262;2023-03-01T22:45:01;3.50;52.20
17659;DHT22;8948;51.534;8.262;2023-03-01T22:50:01;3.40;52.20
17659;DHT22;8948;51.534;8.262;2023-03-01T22:55:02;3.30;52.20
17659;DHT22;8948;51.534;8.262;2023-03-01T23:00:06;3.30;52.40
17659;DHT22;8948;51.534;8.262;2023-03-01T23:05:08;3.30;52.50
17659;DHT22;8948;51.534;8.262;2023-03-01T23:10:09;3.20;52.60
17659;DHT22;8948;51.534;8.262;2023-03-01T23:15:11;3.00;52.60
17659;DHT22;8948;51.534;8.262;2023-03-01T23:20:12;3.00;53.20
17659;DHT22;8948;51.534;8.262;2023-03-01T23:25:13;2.80;53.40
17659;DHT22;8948;51.534;8.262;2023-03-01T23:30:14;2.70;54.20
17659;DHT22;8948;51.534;8.262;2023-03-01T23:35:15;2.60;54.10
17659;DHT22;8948;51.534;8.262;2023-03-01T23:40:15;2.40;54.70
17659;DHT22;8948;51.534;8.262;2023-03-01T23:45:16;2.30;54.80
17659;DHT22;8948;51.534;8.262;2023-03-01T23:50:17;2.40;54.20
17659;DHT22;8948;51.534;8.262;2023-03-01T23:55:18;2.40;54.60
